Time;durP1;ratioP1;P1;durP2;ratioP2;P2;SDS_P1;SDS_P2;PMS_P1;PMS_P2;Temp;Humidity;BMP_temperature;BMP_pressure;BME280_temperature;BME280_humidity;BME280_pressure;Samples;Min_cycle;Max_cycle;Signal;HPM_P1;HPM_P2
2022/09/12 00:00:45;;;;;;;55.33;25.48;;;9.90;99.90;;;;;;4991224;28;20041;-83
2022/09/12 00:03:11;;;;;;;60.53;28.08;;;9.90;99.90;;;;;;4989156;28;20058;-84
2022/09/12 00:05:41;;;;;;;51.13;25.23;;;10.00;99.90;;;;;;4991018;28;20081;-83
2022/09/12 00:08:07;;;;;;;54.00;25.80;;;10.00;99.90;;;;;;4991054;28;20030;-83
2022/09/12 00:10:37;;;;;;;52.45;26.55;;;10.00;99.90;;;;;;4991072;28;20031;-84
2022/09/12 00:13:03;;;;;;;57.83;24.10;;;9.90;99.90;;;;;;4991369;28;20378;-84
2022/09/12 00:15:29;;;;;;;52.10;24.48;;;9.90;99.90;;;;;;4992441;28;20031;-84
2022/09/12 00:17:54;;;;;;;53.25;24.33;;;9.90;99.90;;;;;;4974870;28;20022;-83
2022/09/12 00:20:20;;;;;;;55.13;25.92;;;9.90;99.90;;;;;;5008040;28;20022;-84
2022/09/12 00:22:46;;;;;;;57.97;26.17;;;9.80;99.90;;;;;;4993620;28;20068;-84
2022/09/12 00:25:12;;;;;;;51.63;25.40;;;9.80;99.90;;;;;;5000667;28;20056;-83
2022/09/12 00:27:37;;;;;;;53.35;25.83;;;9.70;99.90;;;;;;4994808;28;20037;-84
2022/09/12 00:30:04;;;;;;;61.88;27.63;;;9.80;99.90;;;;;;4994415;28;20533;-83
2022/09/12 00:32:30;;;;;;;57.60;28.10;;;9.80;99.90;;;;;;4994443;28;20026;-84
2022/09/12 00:34:55;;;;;;;57.45;26.75;;;9.90;99.90;;;;;;4978044;28;20046;-84
2022/09/12 00:37:21;;;;;;;65.75;29.05;;;10.00;99.90;;;;;;4994237;28;20038;-83
2022/09/12 00:39:47;;;;;;;61.10;27.67;;;10.00;99.90;;;;;;4993968;28;20068;-84
2022/09/12 00:42:12;;;;;;;67.63;32.20;;;10.10;99.90;;;;;;4994350;28;20031;-84
2022/09/12 00:44:41;;;;;;;65.82;30.70;;;10.10;99.90;;;;;;4994548;28;20084;-84
2022/09/12 00:47:22;;;;;;;69.43;29.73;;;10.20;99.90;;;;;;4985675;28;20084;-83
2022/09/12 00:49:58;;;;;;;76.72;31.33;;;10.30;99.90;;;;;;5005014;28;20033;-84
2022/09/12 00:52:34;;;;;;;66.30;30.25;;;10.40;99.90;;;;;;4991988;28;20038;-84
2022/09/12 00:55:17;;;;;;;67.60;29.25;;;10.40;99.90;;;;;;4993548;28;20502;-83
2022/09/12 00:57:53;;;;;;;72.53;32.17;;;10.40;99.90;;;;;;4992956;28;20038;-84
2022/09/12 01:00:22;;;;;;;77.70;31.40;;;10.40;99.90;;;;;;4988575;28;20027;-84
2022/09/12 01:02:56;;;;;;;78.68;33.92;;;10.40;99.90;;;;;;4993673;28;20381;-83
2022/09/12 01:05:23;;;;;;;88.57;35.83;;;10.40;99.90;;;;;;4989286;28;20038;-84
2022/09/12 01:07:50;;;;;;;87.35;34.97;;;10.40;99.90;;;;;;4993436;28;20116;-83
2022/09/12 01:10:17;;;;;;;83.55;34.67;;;10.40;99.90;;;;;;4993635;28;20034;-84
2022/09/12 01:12:43;;;;;;;100.10;35.17;;;10.40;99.90;;;;;;4993610;28;20030;-84
2022/09/12 01:15:10;;;;;;;86.70;34.58;;;10.40;99.90;;;;;;4988891;28;20030;-83
2022/09/12 01:17:55;;;;;;;89.20;35.72;;;10.40;99.90;;;;;;4991598;28;20034;-84
2022/09/12 01:20:39;;;;;;;100.40;37.55;;;10.40;99.90;;;;;;4993155;28;20033;-83
2022/09/12 01:23:17;;;;;;;99.35;35.13;;;10.40;99.90;;;;;;4983551;28;20113;-83
2022/09/12 01:26:10;;;;;;;100.72;36.90;;;10.40;99.90;;;;;;4990666;28;20038;-84
2022/09/12 01:29:25;;;;;;;101.90;35.65;;;10.40;99.90;;;;;;4993467;28;20069;-83
2022/09/12 01:32:35;;;;;;;94.47;35.03;;;10.40;99.90;;;;;;4974188;28;20482;-84
2022/09/12 01:35:29;;;;;;;90.90;33.92;;;10.40;99.90;;;;;;4972245;28;20038;-84
2022/09/12 01:38:22;;;;;;;96.95;35.38;;;10.30;99.90;;;;;;4932849;28;20073;-83
2022/09/12 01:40:59;;;;;;;97.50;34.83;;;10.20;99.90;;;;;;4968592;28;20128;-84
2022/09/12 01:43:39;;;;;;;88.45;35.50;;;10.10;99.90;;;;;;4992474;28;20042;-84
2022/09/12 01:46:24;;;;;;;92.00;34.10;;;10.10;99.90;;;;;;4992524;28;20508;-84
2022/09/12 01:49:40;;;;;;;104.32;32.95;;;10.10;99.90;;;;;;4976305;28;20030;-84
2022/09/12 01:52:28;;;;;;;90.53;32.28;;;10.10;99.90;;;;;;4972246;28;20030;-84
2022/09/12 01:55:00;;;;;;;86.22;31.15;;;10.00;99.90;;;;;;4992601;28;20022;-84
2022/09/12 01:57:38;;;;;;;87.65;32.53;;;9.90;99.90;;;;;;4984502;28;20557;-84
2022/09/12 02:00:09;;;;;;;82.22;31.60;;;10.00;99.90;;;;;;4991916;28;20027;-84
2022/09/12 02:02:47;;;;;;;84.68;32.40;;;9.90;99.90;;;;;;4993749;28;20030;-84
2022/09/12 02:05:24;;;;;;;83.65;30.65;;;9.80;99.90;;;;;;4987007;28;20050;-84
2022/09/12 02:07:59;;;;;;;77.40;30.40;;;9.80;99.90;;;;;;4992544;28;20037;-84
2022/09/12 02:10:31;;;;;;;90.07;31.30;;;9.80;99.90;;;;;;4999502;28;20610;-84
2022/09/12 02:13:10;;;;;;;91.10;32.05;;;9.80;99.90;;;;;;5000958;28;20037;-84
2022/09/12 02:15:41;;;;;;;80.88;29.55;;;9.70;99.90;;;;;;4976654;28;20065;-83
2022/09/12 02:18:11;;;;;;;97.15;32.17;;;9.70;99.90;;;;;;4988426;28;20038;-84
2022/09/12 02:20:38;;;;;;;78.45;30.42;;;9.60;99.90;;;;;;4992424;28;20037;-83
2022/09/12 02:23:09;;;;;;;81.07;29.63;;;9.70;99.90;;;;;;4986889;28;20022;-83
2022/09/12 02:25:37;;;;;;;;;;;9.60;99.90;;;;;;4992893;28;20042;-84
2022/09/12 02:28:08;;;;;;;81.45;30.38;;;9.60;99.90;;;;;;4992622;28;20269;-83
2022/09/12 02:30:42;;;;;;;90.05;34.88;;;9.50;99.90;;;;;;4992187;28;20559;-83
2022/09/12 02:33:38;;;;;;;83.15;31.58;;;9.50;99.90;;;;;;4988282;28;20443;-84
2022/09/12 02:36:40;;;;;;;91.80;33.08;;;9.50;99.90;;;;;;4992294;28;20528;-84
2022/09/12 02:39:05;;;;;;;84.13;33.78;;;9.60;99.90;;;;;;4967076;28;20034;-83
2022/09/12 02:41:31;;;;;;;91.65;31.70;;;9.60;99.90;;;;;;4976187;28;20053;-84
2022/09/12 02:44:16;;;;;;;86.95;31.17;;;9.60;99.90;;;;;;4989725;28;20069;-83
2022/09/12 02:46:46;;;;;;;90.35;33.70;;;9.60;99.90;;;;;;4993135;28;20030;-84
2022/09/12 02:49:13;;;;;;;95.67;32.33;;;9.60;99.90;;;;;;4986467;28;20717;-83
2022/09/12 02:51:39;;;;;;;86.07;30.05;;;9.50;99.90;;;;;;4992269;28;20597;-84
2022/09/12 02:54:06;;;;;;;88.00;31.55;;;9.50;99.90;;;;;;4993157;28;20064;-83
2022/09/12 02:56:32;;;;;;;89.15;31.55;;;9.60;99.90;;;;;;5000554;28;20668;-83
2022/09/12 02:59:03;;;;;;;83.75;32.33;;;9.50;99.90;;;;;;4991874;28;20482;-83
2022/09/12 03:01:29;;;;;;;90.72;31.73;;;9.50;99.90;;;;;;4989957;28;20497;-83
2022/09/12 03:04:27;;;;;;;92.78;32.03;;;9.50;99.90;;;;;;4975366;28;20186;-84
2022/09/12 03:07:30;;;;;;;87.07;31.00;;;9.50;99.90;;;;;;4964265;28;20047;-84
2022/09/12 03:10:05;;;;;;;78.60;29.75;;;9.50;99.90;;;;;;4974209;28;20041;-84
2022/09/12 03:12:37;;;;;;;82.40;30.58;;;9.50;99.90;;;;;;4997738;28;20057;-83
2022/09/12 03:15:42;;;;;;;86.55;29.45;;;9.40;99.90;;;;;;4991174;28;20475;-83
2022/09/12 03:18:30;;;;;;;88.85;32.38;;;9.40;99.90;;;;;;4986385;28;20069;-84
2022/09/12 03:21:07;;;;;;;90.70;32.00;;;9.50;99.90;;;;;;4988214;28;20038;-83
2022/09/12 03:24:00;;;;;;;90.45;33.28;;;9.50;99.90;;;;;;4992418;28;20041;-83
2022/09/12 03:26:39;;;;;;;92.05;32.97;;;9.50;99.90;;;;;;4991532;28;20133;-84
2022/09/12 03:29:06;;;;;;;84.32;32.08;;;9.50;99.90;;;;;;4989640;28;20073;-84
2022/09/12 03:31:32;;;;;;;91.10;32.67;;;9.50;99.90;;;;;;4991885;28;20504;-84
2022/09/12 03:33:59;;;;;;;86.05;32.92;;;9.50;99.90;;;;;;4991460;28;20039;-83
2022/09/12 03:36:27;;;;;;;101.43;36.38;;;9.50;99.90;;;;;;4993267;28;20389;-84
2022/09/12 03:38:53;;;;;;;88.03;34.30;;;9.50;99.90;;;;;;4991350;28;20041;-83
2022/09/12 03:41:19;;;;;;;91.20;34.35;;;9.50;99.90;;;;;;5005196;28;20023;-84
2022/09/12 03:43:45;;;;;;;91.78;34.45;;;9.50;99.90;;;;;;4988371;28;20122;-83
2022/09/12 03:46:11;;;;;;;98.82;36.33;;;9.50;99.90;;;;;;4991428;28;20117;-84
2022/09/12 03:48:37;;;;;;;96.63;34.55;;;9.50;99.90;;;;;;4991635;28;20034;-83
2022/09/12 03:51:06;;;;;;;96.25;38.10;;;9.60;99.90;;;;;;5004437;28;20084;-84
2022/09/12 03:53:32;;;;;;;84.38;34.90;;;9.60;99.90;;;;;;4991446;28;20034;-83
2022/09/12 03:55:58;;;;;;;97.32;37.78;;;9.50;99.90;;;;;;4992699;28;20042;-84
2022/09/12 03:58:28;;;;;;;106.65;36.85;;;9.60;99.90;;;;;;4995946;28;20029;-84
2022/09/12 04:00:53;;;;;;;94.25;35.97;;;9.60;99.90;;;;;;4978618;28;20030;-84
2022/09/12 04:03:19;;;;;;;89.72;36.63;;;9.60;99.90;;;;;;4981290;28;20033;-84
2022/09/12 04:05:46;;;;;;;98.18;37.92;;;9.60;99.90;;;;;;4995289;28;20027;-84
2022/09/12 04:08:12;;;;;;;94.18;35.67;;;9.60;99.90;;;;;;5002221;28;20030;-83
2022/09/12 04:10:38;;;;;;;91.50;36.05;;;9.70;99.90;;;;;;4995146;28;20122;-83
2022/09/12 04:13:04;;;;;;;100.68;36.67;;;9.60;99.90;;;;;;4978395;28;20042;-84
2022/09/12 04:15:29;;;;;;;80.75;33.28;;;9.60;99.90;;;;;;4994420;28;20109;-84
2022/09/12 04:17:55;;;;;;;83.22;33.50;;;9.60;99.90;;;;;;4978301;28;20089;-83
2022/09/12 04:20:21;;;;;;;79.75;33.88;;;9.50;99.90;;;;;;4978676;28;20019;-84
2022/09/12 04:22:46;;;;;;;80.22;33.22;;;9.50;99.90;;;;;;4978584;28;20035;-83
2022/09/12 04:25:12;;;;;;;75.80;31.83;;;9.40;99.90;;;;;;4994538;28;20049;-83
2022/09/12 04:27:38;;;;;;;81.53;33.85;;;9.40;99.90;;;;;;4978699;28;20030;-83
2022/09/12 04:30:04;;;;;;;79.10;33.75;;;9.40;99.90;;;;;;4994692;28;20053;-83
2022/09/12 04:32:30;;;;;;;77.93;30.33;;;9.40;99.90;;;;;;4978915;28;20030;-84
2022/09/12 04:34:56;;;;;;;77.97;32.25;;;9.30;99.90;;;;;;4994467;28;20026;-83
2022/09/12 04:37:23;;;;;;;78.38;31.75;;;9.30;99.90;;;;;;5002710;28;20070;-84
2022/09/12 04:39:49;;;;;;;78.13;31.80;;;9.20;99.90;;;;;;4994033;28;20027;-84
2022/09/12 04:42:15;;;;;;;73.40;30.85;;;9.20;99.90;;;;;;4994184;28;20063;-84
2022/09/12 04:44:49;;;;;;;76.43;31.30;;;9.20;99.90;;;;;;4972173;28;20030;-84
2022/09/12 04:47:15;;;;;;;91.00;34.13;;;9.20;99.90;;;;;;4971767;28;20127;-84
2022/09/12 04:49:48;;;;;;;86.00;35.20;;;9.20;99.90;;;;;;4991234;28;20506;-84
2022/09/12 04:52:14;;;;;;;85.03;34.20;;;9.30;99.90;;;;;;4971963;28;20030;-84
2022/09/12 04:54:40;;;;;;;91.60;36.60;;;9.30;99.90;;;;;;4977392;28;20049;-84
2022/09/12 04:57:05;;;;;;;89.22;34.53;;;9.40;99.90;;;;;;4990937;28;20509;-86
2022/09/12 04:59:31;;;;;;;96.30;37.97;;;9.50;99.90;;;;;;4995042;28;20033;-87
2022/09/12 05:01:57;;;;;;;87.07;35.28;;;9.60;99.90;;;;;;5000111;28;20033;-88
2022/09/12 05:04:23;;;;;;;85.68;35.47;;;9.60;99.90;;;;;;4992258;28;20494;-87
2022/09/12 05:06:49;;;;;;;91.97;36.90;;;9.50;99.90;;;;;;4993711;28;20478;-87
2022/09/12 05:09:15;;;;;;;85.60;35.95;;;9.60;99.90;;;;;;4980758;28;20097;-88
2022/09/12 05:11:43;;;;;;;81.63;33.13;;;9.70;99.90;;;;;;5001574;28;20034;-86
2022/09/12 05:14:10;;;;;;;81.88;35.25;;;9.60;99.90;;;;;;4993482;28;20026;-87
2022/09/12 05:16:35;;;;;;;89.82;35.25;;;9.50;99.90;;;;;;4988778;28;20065;-87
2022/09/12 05:19:01;;;;;;;83.35;35.20;;;9.60;99.90;;;;;;4993845;28;20026;-86
2022/09/12 05:21:27;;;;;;;86.70;34.88;;;9.60;99.90;;;;;;4988861;28;20447;-87
2022/09/12 05:23:55;;;;;;;91.57;38.00;;;9.50;99.90;;;;;;4992911;28;20671;-86
2022/09/12 05:26:51;;;;;;;90.60;35.30;;;9.60;99.90;;;;;;4990616;28;20061;-87
2022/09/12 05:29:17;;;;;;;97.15;36.25;;;9.50;99.90;;;;;;4989947;28;20813;-87
2022/09/12 05:31:43;;;;;;;88.03;35.20;;;9.60;99.90;;;;;;4993385;28;20038;-86
2022/09/12 05:34:10;;;;;;;86.18;35.67;;;9.70;99.90;;;;;;4976190;28;20057;-87
2022/09/12 05:36:36;;;;;;;95.38;37.33;;;9.70;99.90;;;;;;4993791;28;20038;-87
2022/09/12 05:39:03;;;;;;;84.43;34.20;;;9.80;99.90;;;;;;4993334;28;20025;-86
2022/09/12 05:41:30;;;;;;;77.60;32.03;;;9.80;99.90;;;;;;4993675;28;20030;-86
2022/09/12 05:43:58;;;;;;;80.75;32.25;;;9.90;99.90;;;;;;5000924;28;20038;-86
2022/09/12 05:46:30;;;;;;;84.25;32.75;;;9.90;99.90;;;;;;4993508;28;20034;-87
2022/09/12 05:49:02;;;;;;;78.93;32.25;;;10.00;99.90;;;;;;4977681;28;20038;-86
2022/09/12 05:51:33;;;;;;;75.72;31.45;;;10.00;99.90;;;;;;4998151;28;20502;-86
2022/09/12 05:54:00;;;;;;;82.63;32.30;;;10.10;99.90;;;;;;4967596;28;20663;-87
2022/09/12 05:56:28;;;;;;;78.82;32.15;;;10.20;99.90;;;;;;4988420;28;20756;-87
2022/09/12 05:59:01;;;;;;;70.57;31.83;;;10.20;99.90;;;;;;4991209;28;20379;-86
2022/09/12 06:01:28;;;;;;;74.38;33.42;;;10.30;99.90;;;;;;4992477;28;20027;-87
2022/09/12 06:03:56;;;;;;;74.63;31.67;;;10.40;99.90;;;;;;4976279;28;20023;-87
2022/09/12 06:06:24;;;;;;;79.95;33.08;;;10.50;99.90;;;;;;4983695;28;20038;-86
2022/09/12 06:08:51;;;;;;;77.35;32.38;;;10.60;99.90;;;;;;4992036;28;20053;-87
2022/09/12 06:11:22;;;;;;;78.10;34.13;;;10.70;99.90;;;;;;4992267;28;20076;-87
2022/09/12 06:13:49;;;;;;;82.53;34.27;;;10.90;99.90;;;;;;4993316;28;20095;-87
2022/09/12 06:16:18;;;;;;;86.38;37.20;;;11.00;99.90;;;;;;4986380;28;20959;-87
2022/09/12 06:19:05;;;;;;;82.38;35.45;;;11.10;99.90;;;;;;4995656;28;20113;-87
2022/09/12 06:21:31;;;;;;;91.45;36.92;;;11.30;99.90;;;;;;4986675;28;20484;-87
2022/09/12 06:23:57;;;;;;;81.18;34.70;;;11.40;99.90;;;;;;4992080;28;20070;-87
2022/09/12 06:26:24;;;;;;;82.40;35.08;;;11.50;99.90;;;;;;4990687;28;20113;-88
2022/09/12 06:28:52;;;;;;;80.05;36.15;;;11.70;99.90;;;;;;4990355;28;20147;-87
2022/09/12 06:31:24;;;;;;;87.80;36.72;;;12.00;99.90;;;;;;4991373;28;20516;-87
2022/09/12 06:33:52;;;;;;;80.32;35.55;;;12.10;99.90;;;;;;4974006;28;20397;-87
2022/09/12 06:36:21;;;;;;;72.75;33.60;;;12.20;99.90;;;;;;4991909;28;20026;-87
2022/09/12 06:38:47;;;;;;;66.72;33.22;;;12.30;99.90;;;;;;4998401;28;20069;-88
2022/09/12 06:41:14;;;;;;;64.35;32.08;;;12.40;99.90;;;;;;4991422;28;20026;-87
2022/09/12 06:43:41;;;;;;;67.30;33.50;;;12.50;99.90;;;;;;4993072;28;20109;-87
2022/09/12 06:46:09;;;;;;;68.53;33.30;;;12.70;99.90;;;;;;4993669;28;20028;-86
2022/09/12 06:48:35;;;;;;;63.70;31.42;;;12.80;99.90;;;;;;4986555;28;20042;-87
2022/09/12 06:51:08;;;;;;;62.97;30.13;;;13.00;99.90;;;;;;4991248;28;20046;-86
2022/09/12 06:53:35;;;;;;;62.28;29.15;;;13.10;99.90;;;;;;4997012;28;20031;-87
2022/09/12 06:56:48;;;;;;;50.58;27.10;;;13.20;99.90;;;;;;4995910;28;20026;-87
2022/09/12 06:59:13;;;;;;;48.40;25.77;;;13.30;99.90;;;;;;4975534;28;20050;-86
2022/09/12 07:01:40;;;;;;;38.92;22.73;;;13.40;99.90;;;;;;4995166;28;20057;-87
2022/09/12 07:04:06;;;;;;;32.50;21.50;;;13.60;99.90;;;;;;4985894;28;20169;-87
2022/09/12 07:06:38;;;;;;;36.90;22.13;;;13.60;99.90;;;;;;4973670;28;20800;-87
2022/09/12 07:09:15;;;;;;;34.88;19.70;;;13.80;99.90;;;;;;4985957;28;20034;-87
2022/09/12 07:11:41;;;;;;;27.23;16.98;;;13.90;99.90;;;;;;4990461;28;20371;-88
2022/09/12 07:14:08;;;;;;;28.55;18.02;;;14.00;99.90;;;;;;4992017;28;20026;-87
2022/09/12 07:16:35;;;;;;;24.13;15.75;;;14.00;99.90;;;;;;5002852;28;20034;-87
2022/09/12 07:19:02;;;;;;;23.25;15.20;;;14.20;99.90;;;;;;4991935;28;20029;-88
2022/09/12 07:21:29;;;;;;;22.55;15.48;;;14.30;99.90;;;;;;4992193;28;20026;-87
2022/09/12 07:23:56;;;;;;;22.55;14.68;;;14.40;99.90;;;;;;4992330;28;20026;-87
2022/09/12 07:26:23;;;;;;;21.10;13.95;;;14.50;99.90;;;;;;4992220;28;20101;-87
2022/09/12 07:28:52;;;;;;;20.17;13.70;;;14.60;99.90;;;;;;4991810;28;20037;-87
2022/09/12 07:31:19;;;;;;;21.42;14.80;;;14.70;99.90;;;;;;4975545;28;20039;-88
2022/09/12 07:33:44;;;;;;;20.13;13.85;;;14.80;99.90;;;;;;4995838;28;20068;-88
2022/09/12 07:36:13;;;;;;;20.90;13.48;;;14.90;99.90;;;;;;4989798;28;20438;-87
2022/09/12 07:38:39;;;;;;;19.23;12.90;;;15.00;99.90;;;;;;4979279;28;20037;-87
2022/09/12 07:41:11;;;;;;;18.55;12.30;;;15.10;99.90;;;;;;4990289;28;20445;-87
2022/09/12 07:43:37;;;;;;;21.10;12.68;;;15.10;99.90;;;;;;5008668;28;20034;-88
2022/09/12 07:46:02;;;;;;;15.68;10.65;;;15.30;99.90;;;;;;4994915;28;20022;-88
2022/09/12 07:48:28;;;;;;;16.20;11.88;;;15.40;99.90;;;;;;4979400;28;20121;-88
2022/09/12 07:51:03;;;;;;;18.08;11.88;;;15.50;99.90;;;;;;4979012;28;20057;-87
2022/09/12 07:53:38;;;;;;;12.15;9.98;;;15.60;99.90;;;;;;4995152;28;20035;-87
2022/09/12 07:56:05;;;;;;;15.63;10.85;;;15.80;99.90;;;;;;5008146;28;20065;-87
2022/09/12 07:58:33;;;;;;;17.38;11.85;;;15.90;99.90;;;;;;4998283;28;20639;-87
2022/09/12 08:01:02;;;;;;;15.60;11.10;;;16.00;99.90;;;;;;4995360;28;20030;-87
2022/09/12 08:03:28;;;;;;;20.20;11.02;;;16.10;99.90;;;;;;4994644;28;20035;-87
2022/09/12 08:05:54;;;;;;;12.82;9.60;;;16.10;99.90;;;;;;4995274;28;20030;-87
2022/09/12 08:08:19;;;;;;;16.35;11.30;;;16.30;99.90;;;;;;4994914;28;20031;-87
2022/09/12 08:10:45;;;;;;;13.77;10.25;;;16.40;99.90;;;;;;4995012;28;20721;-87
2022/09/12 08:13:30;;;;;;;15.45;10.55;;;16.50;99.90;;;;;;4982760;28;20042;-87
2022/09/12 08:16:01;;;;;;;13.82;9.65;;;16.70;99.90;;;;;;5002831;28;20541;-87
2022/09/12 08:18:27;;;;;;;15.63;10.88;;;16.70;99.90;;;;;;4994728;28;20037;-88
2022/09/12 08:21:02;;;;;;;13.48;9.70;;;16.80;99.90;;;;;;4994373;28;20038;-88
2022/09/12 08:23:28;;;;;;;17.27;11.00;;;16.80;99.90;;;;;;4996038;28;20035;-87
2022/09/12 08:26:00;;;;;;;13.50;9.73;;;17.00;99.90;;;;;;4994626;28;20025;-87
2022/09/12 08:28:25;;;;;;;;;;;17.10;99.90;;;;;;4979125;28;20034;-87
2022/09/12 08:31:03;;;;;;;15.57;10.57;;;17.20;99.90;;;;;;4974205;28;19917;-88
2022/09/12 08:33:32;;;;;;;15.73;10.13;;;17.30;99.90;;;;;;4973782;28;20034;-88
2022/09/12 08:36:13;;;;;;;15.05;9.65;;;17.30;99.90;;;;;;4994447;28;20568;-87
2022/09/12 08:38:42;;;;;;;15.52;10.82;;;17.40;99.90;;;;;;4994923;28;20037;-87
2022/09/12 08:41:16;;;;;;;13.60;10.50;;;17.40;99.90;;;;;;4993407;28;20501;-87
2022/09/12 08:44:19;;;;;;;13.65;9.60;;;17.70;99.90;;;;;;4994478;28;20030;-87
2022/09/12 08:47:07;;;;;;;10.57;8.57;;;19.50;99.90;;;;;;4975900;28;20042;-88
2022/09/12 08:49:55;;;;;;;11.77;8.50;;;20.80;99.90;;;;;;4978444;28;20394;-88
2022/09/12 08:52:24;;;;;;;8.90;7.22;;;22.40;99.90;;;;;;4978324;28;20042;-87
2022/09/12 08:54:50;;;;;;;8.13;7.05;;;23.40;99.90;;;;;;4993594;28;20030;-88
2022/09/12 08:57:17;;;;;;;9.65;7.55;;;24.30;99.90;;;;;;4993845;28;20682;-88
2022/09/12 08:59:45;;;;;;;8.82;7.88;;;24.30;99.90;;;;;;4996082;28;20032;-87
2022/09/12 09:02:48;;;;;;;11.82;8.90;;;23.60;99.90;;;;;;4993634;28;20041;-87
2022/09/12 09:05:36;;;;;;;9.30;7.68;;;23.40;99.90;;;;;;4993686;28;20026;-88
2022/09/12 09:08:33;;;;;;;16.02;8.50;;;23.40;99.90;;;;;;4993724;28;20052;-87
2022/09/12 09:11:13;;;;;;;13.00;9.57;;;23.40;99.90;;;;;;5000488;28;20038;-88
2022/09/12 09:16:45;;;;;;;12.68;8.95;;;23.20;99.90;;;;;;5006451;28;20035;-87
2022/09/12 09:19:57;;;;;;;13.45;8.23;;;22.70;99.90;;;;;;4994039;28;20081;-87
2022/09/12 09:22:39;;;;;;;9.60;7.55;;;22.80;99.90;;;;;;4977534;28;20033;-87
2022/09/12 09:25:16;;;;;;;11.48;7.43;;;23.10;99.90;;;;;;4985159;28;20031;-87
2022/09/12 09:28:01;;;;;;;9.52;7.63;;;22.50;99.90;;;;;;4988958;28;20545;-88
2022/09/12 09:30:27;;;;;;;8.82;7.22;;;22.00;99.90;;;;;;4974853;28;20095;-88
2022/09/12 09:32:59;;;;;;;9.90;7.07;;;22.10;99.90;;;;;;4993774;28;20041;-87
2022/09/12 09:35:31;;;;;;;8.73;7.28;;;22.10;99.90;;;;;;4993754;28;20034;-87
2022/09/12 09:38:07;;;;;;;13.38;6.78;;;22.30;99.90;;;;;;4984054;28;20041;-87
2022/09/12 09:40:50;;;;;;;14.35;7.90;;;22.10;99.90;;;;;;4985412;28;20051;-88
2022/09/12 09:43:21;;;;;;;8.95;7.72;;;22.20;99.90;;;;;;4989714;28;20038;-87
2022/09/12 09:45:48;;;;;;;7.68;6.47;;;22.40;99.90;;;;;;4993084;28;20060;-88
2022/09/12 09:48:17;;;;;;;7.45;6.40;;;23.00;99.90;;;;;;4992715;28;20041;-88
2022/09/12 09:50:47;;;;;;;13.05;7.38;;;23.40;99.90;;;;;;4976996;28;20022;-87
2022/09/12 09:53:28;;;;;;;6.53;5.60;;;24.40;99.90;;;;;;4993226;28;20050;-88
2022/09/12 09:55:56;;;;;;;9.75;7.65;;;24.80;99.90;;;;;;4993029;28;20037;-88
2022/09/12 09:58:34;;;;;;;9.18;6.63;;;24.30;99.90;;;;;;4977571;28;20039;-88
2022/09/12 10:01:05;;;;;;;8.07;5.90;;;24.30;99.90;;;;;;4994599;28;20026;-87
2022/09/12 10:03:34;;;;;;;10.10;5.93;;;24.70;99.90;;;;;;4976561;28;20169;-88
2022/09/12 10:06:25;;;;;;;7.18;5.57;;;24.90;99.90;;;;;;4994182;28;20425;-88
2022/09/12 10:09:22;;;;;;;7.65;6.18;;;25.60;99.90;;;;;;4984625;28;20399;-88
2022/09/12 10:11:50;;;;;;;6.80;6.07;;;25.00;99.90;;;;;;4961587;28;20074;-87
2022/09/12 10:14:38;;;;;;;6.18;5.40;;;25.40;99.90;;;;;;4997952;28;20098;-87
2022/09/12 10:17:21;;;;;;;6.85;5.38;;;25.80;99.90;;;;;;4995275;28;20363;-88
2022/09/12 10:19:47;;;;;;;6.55;4.93;;;25.60;99.90;;;;;;4993645;28;20037;-87
2022/09/12 10:22:18;;;;;;;11.82;5.78;;;25.10;99.90;;;;;;4994414;28;20023;-88
2022/09/12 10:24:51;;;;;;;6.88;5.47;;;25.30;99.90;;;;;;4991744;28;20080;-88
2022/09/12 10:27:29;;;;;;;7.57;4.57;;;25.50;99.90;;;;;;4983753;28;20034;-88
2022/09/12 10:30:04;;;;;;;9.95;5.50;;;26.10;99.90;;;;;;4982016;28;20118;-87
2022/09/12 10:32:42;;;;;;;4.32;3.92;;;26.00;99.30;;;;;;4991869;28;20038;-88
2022/09/12 10:35:23;;;;;;;8.27;5.13;;;26.00;99.00;;;;;;4988042;28;20037;-88
2022/09/12 10:38:04;;;;;;;5.20;4.15;;;25.60;98.90;;;;;;4975574;28;20030;-87
2022/09/12 10:40:39;;;;;;;6.30;4.63;;;24.90;99.20;;;;;;4991999;28;20030;-87
2022/09/12 10:43:29;;;;;;;6.70;5.13;;;24.40;99.90;;;;;;4982795;28;20382;-87
2022/09/12 10:46:18;;;;;;;6.18;5.47;;;24.20;99.90;;;;;;4970394;28;20030;-87
2022/09/12 10:48:45;;;;;;;9.45;7.50;;;24.40;99.90;;;;;;4975158;28;20026;-87
2022/09/12 10:51:23;;;;;;;5.15;4.57;;;24.60;99.90;;;;;;4992138;28;20023;-88
2022/09/12 10:53:55;;;;;;;5.82;5.22;;;24.60;99.90;;;;;;4994121;28;20087;-87
2022/09/12 10:56:37;;;;;;;5.75;4.63;;;24.20;99.90;;;;;;4971036;28;20038;-88
2022/09/12 10:59:03;;;;;;;5.68;4.60;;;24.20;99.90;;;;;;4975829;28;20061;-87
2022/09/12 11:01:43;;;;;;;6.10;4.72;;;24.20;99.90;;;;;;4976205;28;20058;-87
2022/09/12 11:04:40;;;;;;;5.63;4.15;;;24.80;99.90;;;;;;4992531;28;20084;-87
2022/09/12 11:07:31;;;;;;;4.80;4.30;;;24.80;99.30;;;;;;4966453;28;20034;-87
2022/09/12 11:10:08;;;;;;;4.77;4.07;;;25.00;99.20;;;;;;4991772;28;20041;-88
2022/09/12 11:12:50;;;;;;;4.05;3.65;;;25.30;97.90;;;;;;4971214;28;20290;-87
2022/09/12 11:15:36;;;;;;;5.82;3.95;;;25.30;97.10;;;;;;4986865;28;20047;-88
2022/09/12 11:18:02;;;;;;;6.13;3.58;;;25.00;98.00;;;;;;4997062;28;20027;-88
2022/09/12 11:20:30;;;;;;;5.05;4.15;;;25.50;97.70;;;;;;4992069;28;20058;-87
2022/09/12 11:23:05;;;;;;;5.05;4.47;;;25.80;98.30;;;;;;4992936;28;20058;-87
2022/09/12 11:25:42;;;;;;;5.50;4.32;;;26.00;98.20;;;;;;4991683;28;20030;-88
2022/09/12 11:28:26;;;;;;;4.90;4.40;;;26.10;98.10;;;;;;4991550;28;20437;-88
2022/09/12 11:31:16;;;;;;;5.93;5.03;;;26.20;97.50;;;;;;4992216;28;20042;-88
2022/09/12 11:33:44;;;;;;;5.43;4.90;;;26.00;97.60;;;;;;4992659;28;20038;-87
2022/09/12 11:36:30;;;;;;;5.40;4.78;;;25.60;97.10;;;;;;4991585;28;20482;-88
2022/09/12 11:39:00;;;;;;;5.47;4.57;;;24.60;99.70;;;;;;4990505;28;20126;-87
2022/09/12 11:41:32;;;;;;;6.53;4.60;;;24.00;99.90;;;;;;4989458;28;20035;-87
2022/09/12 11:44:10;;;;;;;4.65;3.78;;;23.10;99.90;;;;;;4973976;28;20041;-87
2022/09/12 11:46:39;;;;;;;4.82;4.13;;;23.20;99.90;;;;;;4972252;28;20038;-87
2022/09/12 11:49:12;;;;;;;5.75;4.32;;;24.00;99.90;;;;;;4988355;28;20041;-85
2022/09/12 11:51:49;;;;;;;8.48;3.28;;;24.70;98.70;;;;;;4992827;28;20062;-85
2022/09/12 11:54:27;;;;;;;3.85;3.45;;;25.40;95.80;;;;;;4985125;28;20120;-87
2022/09/12 11:57:13;;;;;;;5.35;4.43;;;25.60;96.70;;;;;;4974753;28;20505;-86
2022/09/12 11:59:48;;;;;;;6.13;4.00;;;25.50;95.00;;;;;;4959493;28;20041;-86
2022/09/12 12:02:26;;;;;;;4.68;3.17;;;25.40;95.20;;;;;;4991195;28;20121;-86
2022/09/12 12:05:13;;;;;;;4.70;3.63;;;25.90;95.50;;;;;;4979279;28;20037;-86
2022/09/12 12:07:41;;;;;;;3.88;3.42;;;25.60;94.30;;;;;;4973485;28;20118;-87
2022/09/12 12:10:26;;;;;;;6.57;3.72;;;25.10;94.90;;;;;;4974602;28;20120;-86
2022/09/12 12:12:54;;;;;;;4.97;3.45;;;25.80;95.20;;;;;;4990728;28;20062;-86
2022/09/12 12:15:21;;;;;;;3.85;3.45;;;25.50;94.60;;;;;;4990517;28;20038;-87
2022/09/12 12:18:24;;;;;;;3.85;3.45;;;25.70;94.80;;;;;;4992773;28;20026;-87
2022/09/12 12:20:52;;;;;;;3.88;3.58;;;26.20;95.00;;;;;;4992682;28;20031;-86
2022/09/12 12:23:30;;;;;;;4.43;2.92;;;25.10;94.00;;;;;;4994383;28;20058;-87
2022/09/12 12:25:58;;;;;;;3.83;3.47;;;24.30;96.30;;;;;;5002479;28;20037;-87
2022/09/12 12:28:49;;;;;;;7.20;4.00;;;23.60;96.00;;;;;;4994415;28;20038;-86
2022/09/12 12:31:15;;;;;;;6.80;3.63;;;23.20;98.50;;;;;;4977801;28;20504;-87
2022/09/12 12:33:44;;;;;;;4.50;3.83;;;23.00;99.60;;;;;;4993992;28;20117;-86
2022/09/12 12:36:32;;;;;;;4.38;3.85;;;22.90;99.40;;;;;;4977931;28;20731;-87
2022/09/12 12:38:58;;;;;;;4.00;3.55;;;23.00;99.70;;;;;;4994600;28;20042;-86
2022/09/12 12:41:24;;;;;;;7.40;4.10;;;22.90;99.70;;;;;;4994675;28;20026;-86
2022/09/12 12:44:37;;;;;;;4.15;3.60;;;22.70;99.90;;;;;;4994339;28;20490;-87
2022/09/12 12:47:19;;;;;;;4.07;3.67;;;22.70;99.90;;;;;;4978111;28;20053;-86
2022/09/12 12:49:55;;;;;;;4.15;3.58;;;23.40;99.90;;;;;;4994439;28;20034;-86
2022/09/12 12:52:22;;;;;;;4.47;3.60;;;23.50;97.50;;;;;;4995483;28;20054;-87
2022/09/12 12:54:51;;;;;;;3.72;3.42;;;23.60;98.30;;;;;;5004043;28;20053;-87
2022/09/12 12:57:38;;;;;;;4.90;3.25;;;23.60;98.00;;;;;;4994296;28;20477;-85
2022/09/12 13:00:21;;;;;;;8.75;3.75;;;23.80;97.60;;;;;;4996855;28;20029;-88
2022/09/12 13:02:58;;;;;;;3.78;3.47;;;23.50;97.70;;;;;;4994015;28;20088;-87
2022/09/12 13:05:26;;;;;;;8.18;3.50;;;23.50;97.20;;;;;;4991602;28;20031;-88
2022/09/12 13:08:18;;;;;;;7.90;3.60;;;23.80;97.00;;;;;;4979814;28;20029;-87
2022/09/12 13:11:14;;;;;;;3.53;3.22;;;24.10;97.30;;;;;;4974927;28;20065;-87